sensor_id;sensor_type;location;lat;lon;timestamp;pressure;altitude;pressure_sealevel;temperature;humidity
48846;BME280;34665;51.886;5.436;2022-12-18T00:01:58;102671.22;;;0.91;100.00
48846;BME280;34665;51.886;5.436;2022-12-18T00:04:27;102679.97;;;0.59;100.00
48846;BME280;34665;51.886;5.436;2022-12-18T00:06:53;102677.69;;;1.32;100.00
48846;BME280;34665;51.886;5.436;2022-12-18T00:09:19;102673.91;;;1.21;100.00
48846;BME280;34665;51.886;5.436;2022-12-18T00:11:45;102680.97;;;1.05;100.00
48846;BME280;34665;51.886;5.436;2022-12-18T00:14:12;102683.28;;;0.79;100.00
48846;BME280;34665;51.886;5.436;2022-12-18T00:16:38;102674.69;;;0.27;100.00
48846;BME280;34665;51.886;5.436;2022-12-18T00:19:04;102662.88;;;0.34;100.00
48846;BME280;34665;51.886;5.436;2022-12-18T00:21:33;102658.72;;;0.30;100.00
48846;BME280;34665;51.886;5.436;2022-12-18T00:23:59;102653.91;;;0.05;100.00
48846;BME280;34665;51.886;5.436;2022-12-18T00:26:30;102644.91;;;0.09;100.00
48846;BME280;34665;51.886;5.436;2022-12-18T00:29:00;102635.13;;;-0.05;100.00
48846;BME280;34665;51.886;5.436;2022-12-18T00:31:26;102648.03;;;-0.01;100.00
48846;BME280;34665;51.886;5.436;2022-12-18T00:33:54;102635.88;;;-0.37;100.00
48846;BME280;34665;51.886;5.436;2022-12-18T00:36:28;102640.28;;;-0.20;100.00
48846;BME280;34665;51.886;5.436;2022-12-18T00:38:56;102641.34;;;-0.24;100.00
48846;BME280;34665;51.886;5.436;2022-12-18T00:41:22;102637.28;;;-0.30;100.00
48846;BME280;34665;51.886;5.436;2022-12-18T00:44:07;102632.41;;;-0.20;100.00
48846;BME280;34665;51.886;5.436;2022-12-18T00:46:34;102635.63;;;-0.15;100.00
48846;BME280;34665;51.886;5.436;2022-12-18T00:48:59;102645.84;;;-0.26;100.00
48846;BME280;34665;51.886;5.436;2022-12-18T00:51:25;102650.81;;;-0.37;100.00
48846;BME280;34665;51.886;5.436;2022-12-18T00:53:52;102653.88;;;-0.29;100.00
48846;BME280;34665;51.886;5.436;2022-12-18T00:56:21;102665.28;;;-0.28;100.00
48846;BME280;34665;51.886;5.436;2022-12-18T00:58:46;102655.50;;;-0.09;100.00
48846;BME280;34665;51.886;5.436;2022-12-18T01:01:12;102656.72;;;-0.16;100.00
48846;BME280;34665;51.886;5.436;2022-12-18T01:03:37;102648.03;;;-0.34;100.00
48846;BME280;34665;51.886;5.436;2022-12-18T01:06:10;102645.88;;;-0.44;100.00
48846;BME280;34665;51.886;5.436;2022-12-18T01:08:37;102644.22;;;0.55;100.00
48846;BME280;34665;51.886;5.436;2022-12-18T01:11:11;102653.34;;;-0.18;100.00
48846;BME280;34665;51.886;5.436;2022-12-18T01:13:38;102653.53;;;-0.56;100.00
48846;BME280;34665;51.886;5.436;2022-12-18T01:16:04;102664.44;;;-0.64;100.00
48846;BME280;34665;51.886;5.436;2022-12-18T01:18:29;102655.81;;;-0.85;100.00
48846;BME280;34665;51.886;5.436;2022-12-18T01:20:57;102650.72;;;-0.89;100.00
48846;BME280;34665;51.886;5.436;2022-12-18T01:23:26;102650.81;;;-0.90;100.00
48846;BME280;34665;51.886;5.436;2022-12-18T01:25:51;102645.22;;;-1.02;100.00
48846;BME280;34665;51.886;5.436;2022-12-18T01:28:18;102650.16;;;-0.95;100.00
48846;BME280;34665;51.886;5.436;2022-12-18T01:30:43;102653.13;;;-0.84;100.00
48846;BME280;34665;51.886;5.436;2022-12-18T01:33:09;102658.06;;;-0.78;100.00
48846;BME280;34665;51.886;5.436;2022-12-18T01:35:41;102666.25;;;-0.84;100.00
48846;BME280;34665;51.886;5.436;2022-12-18T01:38:07;102651.97;;;-0.96;100.00
48846;BME280;34665;51.886;5.436;2022-12-18T01:40:32;102639.75;;;-0.97;100.00
48846;BME280;34665;51.886;5.436;2022-12-18T01:42:58;102639.44;;;-1.27;100.00
48846;BME280;34665;51.886;5.436;2022-12-18T01:45:28;102644.38;;;-1.02;100.00
48846;BME280;34665;51.886;5.436;2022-12-18T01:48:03;102645.69;;;-1.30;100.00
48846;BME280;34665;51.886;5.436;2022-12-18T01:50:42;102654.47;;;-1.31;100.00
48846;BME280;34665;51.886;5.436;2022-12-18T01:53:19;102662.44;;;-1.33;100.00
48846;BME280;34665;51.886;5.436;2022-12-18T01:55:48;102652.50;;;-1.26;100.00
48846;BME280;34665;51.886;5.436;2022-12-18T01:58:15;102646.69;;;-1.52;100.00
48846;BME280;34665;51.886;5.436;2022-12-18T02:00:41;102652.94;;;-1.35;100.00
48846;BME280;34665;51.886;5.436;2022-12-18T02:03:06;102654.78;;;-1.37;100.00
48846;BME280;34665;51.886;5.436;2022-12-18T02:10:41;102660.25;;;-1.05;100.00
48846;BME280;34665;51.886;5.436;2022-12-18T02:13:23;102667.94;;;-1.01;100.00
48846;BME280;34665;51.886;5.436;2022-12-18T02:16:03;102662.72;;;-0.65;100.00
48846;BME280;34665;51.886;5.436;2022-12-18T02:18:37;102668.63;;;-0.97;100.00
48846;BME280;34665;51.886;5.436;2022-12-18T02:21:27;102659.72;;;-1.12;100.00
48846;BME280;34665;51.886;5.436;2022-12-18T02:24:15;102657.56;;;-1.04;100.00
48846;BME280;34665;51.886;5.436;2022-12-18T02:26:47;102653.81;;;-1.17;100.00
48846;BME280;34665;51.886;5.436;2022-12-18T02:29:19;102648.16;;;-1.08;100.00
48846;BME280;34665;51.886;5.436;2022-12-18T02:31:51;102656.84;;;-1.25;100.00
48846;BME280;34665;51.886;5.436;2022-12-18T02:34:22;102648.81;;;-1.41;100.00
48846;BME280;34665;51.886;5.436;2022-12-18T02:36:50;102654.13;;;-1.62;100.00
48846;BME280;34665;51.886;5.436;2022-12-18T02:39:19;102641.72;;;-1.58;100.00
48846;BME280;34665;51.886;5.436;2022-12-18T02:41:57;102645.75;;;-1.51;100.00
48846;BME280;34665;51.886;5.436;2022-12-18T02:44:23;102648.03;;;-1.43;100.00
48846;BME280;34665;51.886;5.436;2022-12-18T02:46:51;102640.72;;;-1.36;100.00
48846;BME280;34665;51.886;5.436;2022-12-18T02:49:35;102640.28;;;-1.27;100.00
48846;BME280;34665;51.886;5.436;2022-12-18T02:54:57;102639.91;;;-1.19;100.00
48846;BME280;34665;51.886;5.436;2022-12-18T02:57:41;102638.06;;;-1.17;100.00
48846;BME280;34665;51.886;5.436;2022-12-18T03:00:14;102635.75;;;-1.23;100.00
48846;BME280;34665;51.886;5.436;2022-12-18T03:05:16;102640.94;;;-1.22;100.00
48846;BME280;34665;51.886;5.436;2022-12-18T03:07:56;102636.00;;;-1.10;100.00
48846;BME280;34665;51.886;5.436;2022-12-18T03:10:30;102635.13;;;-1.28;100.00
48846;BME280;34665;51.886;5.436;2022-12-18T03:13:20;102629.78;;;-1.27;100.00
48846;BME280;34665;51.886;5.436;2022-12-18T03:15:52;102617.03;;;-0.98;100.00
48846;BME280;34665;51.886;5.436;2022-12-18T03:18:24;102611.94;;;-1.38;100.00
48846;BME280;34665;51.886;5.436;2022-12-18T03:20:53;102614.13;;;-1.28;100.00
48846;BME280;34665;51.886;5.436;2022-12-18T03:23:24;102614.50;;;-1.55;100.00
48846;BME280;34665;51.886;5.436;2022-12-18T03:25:56;102612.72;;;-1.36;100.00
48846;BME280;34665;51.886;5.436;2022-12-18T03:28:26;102603.53;;;-1.27;100.00
48846;BME280;34665;51.886;5.436;2022-12-18T03:31:00;102596.38;;;-1.23;100.00
48846;BME280;34665;51.886;5.436;2022-12-18T03:33:34;102591.22;;;-1.25;100.00
48846;BME280;34665;51.886;5.436;2022-12-18T03:36:03;102590.50;;;-1.28;100.00
48846;BME280;34665;51.886;5.436;2022-12-18T03:38:29;102588.78;;;-1.30;100.00
48846;BME280;34665;51.886;5.436;2022-12-18T03:41:29;102589.88;;;-1.34;100.00
48846;BME280;34665;51.886;5.436;2022-12-18T03:47:11;102596.88;;;-1.34;100.00
48846;BME280;34665;51.886;5.436;2022-12-18T03:52:36;102594.63;;;-1.42;100.00
48846;BME280;34665;51.886;5.436;2022-12-18T03:55:05;102585.75;;;-1.39;100.00
48846;BME280;34665;51.886;5.436;2022-12-18T03:57:33;102580.28;;;-1.35;100.00
48846;BME280;34665;51.886;5.436;2022-12-18T04:00:07;102584.53;;;-1.32;100.00
48846;BME280;34665;51.886;5.436;2022-12-18T04:02:52;102580.19;;;-1.33;100.00
48846;BME280;34665;51.886;5.436;2022-12-18T04:05:25;102579.28;;;-1.32;100.00
48846;BME280;34665;51.886;5.436;2022-12-18T04:07:53;102570.78;;;-1.37;100.00
48846;BME280;34665;51.886;5.436;2022-12-18T04:10:20;102571.50;;;-1.34;100.00
48846;BME280;34665;51.886;5.436;2022-12-18T04:12:46;102573.78;;;-0.22;100.00
48846;BME280;34665;51.886;5.436;2022-12-18T04:15:13;102566.91;;;0.08;100.00
48846;BME280;34665;51.886;5.436;2022-12-18T04:17:45;102562.59;;;-0.61;100.00
48846;BME280;34665;51.886;5.436;2022-12-18T04:20:12;102570.13;;;-1.06;100.00
48846;BME280;34665;51.886;5.436;2022-12-18T04:22:41;102565.13;;;-1.47;100.00
48846;BME280;34665;51.886;5.436;2022-12-18T04:25:11;102558.19;;;-1.48;100.00
48846;BME280;34665;51.886;5.436;2022-12-18T04:27:44;102566.13;;;-1.50;100.00
48846;BME280;34665;51.886;5.436;2022-12-18T04:30:11;102571.75;;;-1.57;100.00
48846;BME280;34665;51.886;5.436;2022-12-18T04:32:36;102559.09;;;-1.49;100.00
48846;BME280;34665;51.886;5.436;2022-12-18T04:35:03;102559.88;;;-1.47;100.00
48846;BME280;34665;51.886;5.436;2022-12-18T04:37:31;102569.19;;;-1.59;100.00
48846;BME280;34665;51.886;5.436;2022-12-18T04:39:57;102576.50;;;-1.66;100.00
48846;BME280;34665;51.886;5.436;2022-12-18T04:42:30;102577.00;;;-1.57;100.00
48846;BME280;34665;51.886;5.436;2022-12-18T04:44:55;102579.78;;;-1.24;100.00
48846;BME280;34665;51.886;5.436;2022-12-18T04:47:21;102583.09;;;-0.50;100.00
48846;BME280;34665;51.886;5.436;2022-12-18T04:49:46;102592.22;;;0.26;100.00
48846;BME280;34665;51.886;5.436;2022-12-18T04:52:11;102588.53;;;-0.88;100.00
48846;BME280;34665;51.886;5.436;2022-12-18T04:54:37;102594.28;;;0.37;100.00
48846;BME280;34665;51.886;5.436;2022-12-18T04:57:02;102592.94;;;-0.89;100.00
48846;BME280;34665;51.886;5.436;2022-12-18T04:59:28;102595.38;;;-1.21;100.00
48846;BME280;34665;51.886;5.436;2022-12-18T05:01:53;102596.03;;;-1.35;100.00
48846;BME280;34665;51.886;5.436;2022-12-18T05:04:19;102603.25;;;-1.40;100.00
48846;BME280;34665;51.886;5.436;2022-12-18T05:06:44;102608.66;;;-1.43;100.00
48846;BME280;34665;51.886;5.436;2022-12-18T05:09:10;102611.25;;;-1.61;100.00
48846;BME280;34665;51.886;5.436;2022-12-18T05:11:36;102619.97;;;-1.79;100.00
48846;BME280;34665;51.886;5.436;2022-12-18T05:14:02;102609.13;;;-1.71;100.00
48846;BME280;34665;51.886;5.436;2022-12-18T05:16:27;102619.75;;;-1.75;100.00
48846;BME280;34665;51.886;5.436;2022-12-18T05:18:53;102614.63;;;-1.97;100.00
48846;BME280;34665;51.886;5.436;2022-12-18T05:21:19;102608.03;;;-1.48;100.00
48846;BME280;34665;51.886;5.436;2022-12-18T05:23:44;102612.78;;;-1.37;100.00
48846;BME280;34665;51.886;5.436;2022-12-18T05:26:14;102617.00;;;-1.52;100.00
48846;BME280;34665;51.886;5.436;2022-12-18T05:28:40;102615.69;;;-1.63;100.00
48846;BME280;34665;51.886;5.436;2022-12-18T05:31:05;102612.72;;;-1.36;100.00
48846;BME280;34665;51.886;5.436;2022-12-18T05:33:34;102613.66;;;-1.56;100.00
48846;BME280;34665;51.886;5.436;2022-12-18T05:36:06;102620.09;;;-1.44;100.00
48846;BME280;34665;51.886;5.436;2022-12-18T05:38:33;102619.50;;;-0.95;100.00
48846;BME280;34665;51.886;5.436;2022-12-18T05:40:59;102611.38;;;-1.64;100.00
48846;BME280;34665;51.886;5.436;2022-12-18T05:43:26;102609.91;;;-1.69;100.00
48846;BME280;34665;51.886;5.436;2022-12-18T05:45:52;102610.34;;;-1.60;100.00
48846;BME280;34665;51.886;5.436;2022-12-18T05:48:18;102606.00;;;-1.61;100.00
48846;BME280;34665;51.886;5.436;2022-12-18T05:50:45;102604.94;;;-1.56;100.00
48846;BME280;34665;51.886;5.436;2022-12-18T05:53:12;102598.53;;;-1.51;100.00
48846;BME280;34665;51.886;5.436;2022-12-18T05:55:39;102588.13;;;-1.52;100.00
48846;BME280;34665;51.886;5.436;2022-12-18T05:58:07;102587.78;;;-1.27;100.00
48846;BME280;34665;51.886;5.436;2022-12-18T06:00:35;102582.41;;;-1.43;100.00
48846;BME280;34665;51.886;5.436;2022-12-18T06:03:05;102580.47;;;-1.57;100.00
48846;BME280;34665;51.886;5.436;2022-12-18T06:05:35;102576.22;;;-1.60;100.00
48846;BME280;34665;51.886;5.436;2022-12-18T06:08:01;102572.78;;;-1.62;100.00
48846;BME280;34665;51.886;5.436;2022-12-18T06:10:26;102571.91;;;-1.61;100.00
48846;BME280;34665;51.886;5.436;2022-12-18T06:12:52;102568.06;;;-1.53;100.00
48846;BME280;34665;51.886;5.436;2022-12-18T06:15:18;102569.19;;;-1.59;100.00
48846;BME280;34665;51.886;5.436;2022-12-18T06:17:44;102569.75;;;-1.52;100.00
48846;BME280;34665;51.886;5.436;2022-12-18T06:20:09;102567.13;;;-1.52;100.00
48846;BME280;34665;51.886;5.436;2022-12-18T06:22:35;102559.56;;;-1.41;100.00
48846;BME280;34665;51.886;5.436;2022-12-18T06:25:00;102559.03;;;-1.48;100.00
48846;BME280;34665;51.886;5.436;2022-12-18T06:27:26;102553.78;;;-1.48;100.00
48846;BME280;34665;51.886;5.436;2022-12-18T06:29:52;102563.91;;;-1.40;100.00
48846;BME280;34665;51.886;5.436;2022-12-18T06:32:17;102562.97;;;-1.39;100.00
48846;BME280;34665;51.886;5.436;2022-12-18T06:34:43;102570.41;;;-1.30;100.00
48846;BME280;34665;51.886;5.436;2022-12-18T06:37:08;102567.38;;;-1.39;100.00
48846;BME280;34665;51.886;5.436;2022-12-18T06:39:34;102568.09;;;-1.18;100.00
48846;BME280;34665;51.886;5.436;2022-12-18T06:41:59;102553.78;;;-1.48;100.00
48846;BME280;34665;51.886;5.436;2022-12-18T06:44:25;102557.84;;;-1.60;100.00
48846;BME280;34665;51.886;5.436;2022-12-18T06:46:50;102552.94;;;-1.48;100.00
48846;BME280;34665;51.886;5.436;2022-12-18T06:49:16;102553.91;;;-1.51;100.00
48846;BME280;34665;51.886;5.436;2022-12-18T06:51:42;102557.13;;;-1.63;100.00
48846;BME280;34665;51.886;5.436;2022-12-18T06:54:07;102536.56;;;-1.53;100.00
48846;BME280;34665;51.886;5.436;2022-12-18T06:56:33;102532.25;;;-1.54;100.00
48846;BME280;34665;51.886;5.436;2022-12-18T06:58:58;102525.28;;;-1.55;100.00
48846;BME280;34665;51.886;5.436;2022-12-18T07:01:24;102521.38;;;-1.47;100.00
48846;BME280;34665;51.886;5.436;2022-12-18T07:03:53;102520.19;;;-1.41;100.00
48846;BME280;34665;51.886;5.436;2022-12-18T07:06:22;102526.94;;;-1.35;100.00
48846;BME280;34665;51.886;5.436;2022-12-18T07:08:50;102519.28;;;-1.40;100.00
48846;BME280;34665;51.886;5.436;2022-12-18T07:11:17;102524.53;;;-1.40;100.00
48846;BME280;34665;51.886;5.436;2022-12-18T07:13:43;102511.72;;;-1.46;100.00
48846;BME280;34665;51.886;5.436;2022-12-18T07:16:18;102509.25;;;-1.49;100.00
48846;BME280;34665;51.886;5.436;2022-12-18T07:18:44;102505.47;;;-1.43;100.00
48846;BME280;34665;51.886;5.436;2022-12-18T07:21:15;102499.31;;;-1.62;100.00
48846;BME280;34665;51.886;5.436;2022-12-18T07:23:41;102499.22;;;-1.59;100.00
48846;BME280;34665;51.886;5.436;2022-12-18T07:26:10;102488.31;;;-1.51;100.00
48846;BME280;34665;51.886;5.436;2022-12-18T07:28:37;102488.66;;;-1.39;100.00
48846;BME280;34665;51.886;5.436;2022-12-18T07:31:06;102491.63;;;-1.47;100.00
48846;BME280;34665;51.886;5.436;2022-12-18T07:33:33;102481.38;;;-1.34;100.00
48846;BME280;34665;51.886;5.436;2022-12-18T07:36:00;102484.78;;;-1.50;100.00
48846;BME280;34665;51.886;5.436;2022-12-18T07:38:26;102488.59;;;-1.38;100.00
48846;BME280;34665;51.886;5.436;2022-12-18T07:40:51;102478.22;;;-1.23;100.00
48846;BME280;34665;51.886;5.436;2022-12-18T07:43:17;102479.13;;;-1.42;100.00
48846;BME280;34665;51.886;5.436;2022-12-18T07:45:43;102466.72;;;-1.38;100.00
48846;BME280;34665;51.886;5.436;2022-12-18T07:48:09;102462.00;;;-1.32;100.00
48846;BME280;34665;51.886;5.436;2022-12-18T07:50:34;102460.00;;;-1.26;100.00
48846;BME280;34665;51.886;5.436;2022-12-18T07:52:59;102460.06;;;-1.28;100.00
48846;BME280;34665;51.886;5.436;2022-12-18T07:55:30;102463.84;;;-1.16;100.00
48846;BME280;34665;51.886;5.436;2022-12-18T07:57:55;102463.06;;;-1.01;100.00
48846;BME280;34665;51.886;5.436;2022-12-18T08:00:21;102461.38;;;-1.02;100.00
48846;BME280;34665;51.886;5.436;2022-12-18T08:02:47;102449.41;;;-1.07;100.00
48846;BME280;34665;51.886;5.436;2022-12-18T08:05:13;102440.69;;;-0.74;100.00
48846;BME280;34665;51.886;5.436;2022-12-18T08:07:39;102448.59;;;0.83;100.00
48846;BME280;34665;51.886;5.436;2022-12-18T08:10:05;102456.81;;;0.32;100.00
48846;BME280;34665;51.886;5.436;2022-12-18T08:12:31;102455.25;;;1.76;100.00
48846;BME280;34665;51.886;5.436;2022-12-18T08:14:56;102451.44;;;0.03;100.00
48846;BME280;34665;51.886;5.436;2022-12-18T08:17:21;102453.97;;;0.96;100.00
48846;BME280;34665;51.886;5.436;2022-12-18T08:19:47;102448.00;;;0.64;100.00
48846;BME280;34665;51.886;5.436;2022-12-18T08:22:13;102455.75;;;0.81;100.00
48846;BME280;34665;51.886;5.436;2022-12-18T08:24:38;102460.50;;;1.34;100.00
48846;BME280;34665;51.886;5.436;2022-12-18T08:27:04;102485.53;;;1.27;100.00
48846;BME280;34665;51.886;5.436;2022-12-18T08:29:29;102477.28;;;0.88;100.00
48846;BME280;34665;51.886;5.436;2022-12-18T08:31:56;102476.56;;;1.00;100.00
48846;BME280;34665;51.886;5.436;2022-12-18T08:34:21;102474.50;;;1.35;100.00
48846;BME280;34665;51.886;5.436;2022-12-18T08:36:46;102473.13;;;1.29;100.00
48846;BME280;34665;51.886;5.436;2022-12-18T08:39:12;102477.50;;;0.99;100.00
48846;BME280;34665;51.886;5.436;2022-12-18T08:41:38;102471.06;;;0.75;100.00
48846;BME280;34665;51.886;5.436;2022-12-18T08:44:03;102470.69;;;0.81;100.00
48846;BME280;34665;51.886;5.436;2022-12-18T08:46:48;102472.91;;;1.18;100.00
48846;BME280;34665;51.886;5.436;2022-12-18T08:49:13;102471.75;;;0.93;100.00
48846;BME280;34665;51.886;5.436;2022-12-18T08:51:40;102453.34;;;1.51;100.00
48846;BME280;34665;51.886;5.436;2022-12-18T08:54:06;102455.53;;;0.39;100.00
48846;BME280;34665;51.886;5.436;2022-12-18T08:56:31;102449.31;;;-0.06;100.00
48846;BME280;34665;51.886;5.436;2022-12-18T08:58:58;102454.66;;;-0.08;100.00
48846;BME280;34665;51.886;5.436;2022-12-18T09:01:24;102452.69;;;-0.20;100.00
48846;BME280;34665;51.886;5.436;2022-12-18T09:03:50;102458.50;;;1.23;100.00
48846;BME280;34665;51.886;5.436;2022-12-18T09:06:18;102464.34;;;0.99;100.00
48846;BME280;34665;51.886;5.436;2022-12-18T09:08:44;102453.03;;;2.25;100.00
48846;BME280;34665;51.886;5.436;2022-12-18T09:11:21;102456.06;;;1.91;100.00
48846;BME280;34665;51.886;5.436;2022-12-18T09:13:47;102471.50;;;1.26;100.00
48846;BME280;34665;51.886;5.436;2022-12-18T09:16:13;102465.41;;;0.36;100.00
48846;BME280;34665;51.886;5.436;2022-12-18T09:18:39;102478.81;;;0.31;100.00
48846;BME280;34665;51.886;5.436;2022-12-18T09:21:12;102484.72;;;0.51;100.00
48846;BME280;34665;51.886;5.436;2022-12-18T09:23:38;102487.84;;;1.90;100.00
48846;BME280;34665;51.886;5.436;2022-12-18T09:26:04;102483.38;;;2.32;100.00
48846;BME280;34665;51.886;5.436;2022-12-18T09:28:29;102465.31;;;2.39;100.00
48846;BME280;34665;51.886;5.436;2022-12-18T09:30:55;102470.97;;;2.20;100.00
48846;BME280;34665;51.886;5.436;2022-12-18T09:33:21;102467.66;;;2.43;100.00
48846;BME280;34665;51.886;5.436;2022-12-18T09:35:46;102452.66;;;2.04;100.00
48846;BME280;34665;51.886;5.436;2022-12-18T09:38:17;102462.09;;;2.48;100.00
48846;BME280;34665;51.886;5.436;2022-12-18T09:40:54;102455.41;;;3.09;100.00
48846;BME280;34665;51.886;5.436;2022-12-18T09:43:26;102462.75;;;2.65;100.00
48846;BME280;34665;51.886;5.436;2022-12-18T09:46:06;102454.66;;;3.20;100.00
48846;BME280;34665;51.886;5.436;2022-12-18T09:48:39;102437.56;;;3.87;100.00
48846;BME280;34665;51.886;5.436;2022-12-18T09:51:16;102425.63;;;3.81;100.00
48846;BME280;34665;51.886;5.436;2022-12-18T09:54:15;102420.59;;;3.15;100.00
48846;BME280;34665;51.886;5.436;2022-12-18T09:56:42;102422.72;;;3.10;100.00
48846;BME280;34665;51.886;5.436;2022-12-18T09:59:23;102423.97;;;3.04;100.00
48846;BME280;34665;51.886;5.436;2022-12-18T10:01:49;102418.03;;;3.39;100.00
48846;BME280;34665;51.886;5.436;2022-12-18T10:04:14;102411.31;;;3.59;100.00
48846;BME280;34665;51.886;5.436;2022-12-18T10:06:48;102421.44;;;3.28;100.00
48846;BME280;34665;51.886;5.436;2022-12-18T10:19:56;102441.88;;;3.64;100.00
48846;BME280;34665;51.886;5.436;2022-12-18T10:25:34;102440.03;;;4.62;100.00
48846;BME280;34665;51.886;5.436;2022-12-18T10:28:12;102418.69;;;3.92;100.00
48846;BME280;34665;51.886;5.436;2022-12-18T10:30:39;102417.63;;;3.94;100.00
48846;BME280;34665;51.886;5.436;2022-12-18T10:33:04;102426.44;;;3.57;100.00
48846;BME280;34665;51.886;5.436;2022-12-18T10:35:30;102419.13;;;3.61;100.00
48846;BME280;34665;51.886;5.436;2022-12-18T10:38:20;102402.59;;;3.95;100.00
48846;BME280;34665;51.886;5.436;2022-12-18T10:40:50;102389.16;;;3.36;100.00
48846;BME280;34665;51.886;5.436;2022-12-18T10:43:40;102384.25;;;3.80;100.00
48846;BME280;34665;51.886;5.436;2022-12-18T10:48:39;102371.78;;;3.69;100.00
48846;BME280;34665;51.886;5.436;2022-12-18T10:51:07;102382.31;;;3.82;100.00
48846;BME280;34665;51.886;5.436;2022-12-18T10:53:35;102378.16;;;4.15;100.00
48846;BME280;34665;51.886;5.436;2022-12-18T10:56:03;102371.44;;;4.34;100.00
48846;BME280;34665;51.886;5.436;2022-12-18T10:58:34;102365.53;;;4.30;100.00
48846;BME280;34665;51.886;5.436;2022-12-18T11:01:12;102366.34;;;3.84;100.00
48846;BME280;34665;51.886;5.436;2022-12-18T11:03:43;102377.03;;;3.82;100.00
48846;BME280;34665;51.886;5.436;2022-12-18T11:06:14;102361.63;;;4.12;100.00
48846;BME280;34665;51.886;5.436;2022-12-18T11:08:44;102360.06;;;4.56;100.00
48846;BME280;34665;51.886;5.436;2022-12-18T11:11:22;102360.81;;;4.23;100.00
48846;BME280;34665;51.886;5.436;2022-12-18T11:14:01;102352.41;;;4.18;100.00
48846;BME280;34665;51.886;5.436;2022-12-18T11:16:28;102344.28;;;4.66;100.00
48846;BME280;34665;51.886;5.436;2022-12-18T11:19:20;102351.16;;;5.03;100.00
48846;BME280;34665;51.886;5.436;2022-12-18T11:21:47;102345.47;;;4.51;100.00
48846;BME280;34665;51.886;5.436;2022-12-18T11:24:35;102331.66;;;4.11;100.00
48846;BME280;34665;51.886;5.436;2022-12-18T11:27:02;102339.00;;;3.83;100.00
48846;BME280;34665;51.886;5.436;2022-12-18T11:29:39;102331.22;;;3.93;100.00
48846;BME280;34665;51.886;5.436;2022-12-18T11:32:30;102334.72;;;4.41;100.00
48846;BME280;34665;51.886;5.436;2022-12-18T11:35:20;102341.91;;;3.80;100.00
48846;BME280;34665;51.886;5.436;2022-12-18T11:37:54;102341.13;;;4.61;100.00
48846;BME280;34665;51.886;5.436;2022-12-18T11:40:33;102338.88;;;4.56;100.00
48846;BME280;34665;51.886;5.436;2022-12-18T11:43:25;102333.34;;;4.12;100.00
48846;BME280;34665;51.886;5.436;2022-12-18T11:46:11;102327.41;;;5.01;100.00
48846;BME280;34665;51.886;5.436;2022-12-18T11:48:48;102324.53;;;4.82;100.00
48846;BME280;34665;51.886;5.436;2022-12-18T11:51:28;102317.28;;;5.07;100.00
48846;BME280;34665;51.886;5.436;2022-12-18T11:53:57;102333.88;;;4.29;100.00
48846;BME280;34665;51.886;5.436;2022-12-18T11:56:35;102316.69;;;5.03;100.00
48846;BME280;34665;51.886;5.436;2022-12-18T12:02:09;102311.75;;;4.98;100.00
48846;BME280;34665;51.886;5.436;2022-12-18T12:07:50;102286.25;;;5.30;100.00
48846;BME280;34665;51.886;5.436;2022-12-18T12:16:06;102273.19;;;5.71;100.00
48846;BME280;34665;51.886;5.436;2022-12-18T12:27:45;102273.94;;;4.62;100.00
48846;BME280;34665;51.886;5.436;2022-12-18T12:30:20;102261.78;;;5.26;100.00
48846;BME280;34665;51.886;5.436;2022-12-18T12:35:29;102247.84;;;5.13;100.00
48846;BME280;34665;51.886;5.436;2022-12-18T12:38:06;102243.84;;;5.51;100.00
48846;BME280;34665;51.886;5.436;2022-12-18T12:40:39;102238.31;;;5.10;100.00
48846;BME280;34665;51.886;5.436;2022-12-18T12:43:22;102228.47;;;5.66;98.87
48846;BME280;34665;51.886;5.436;2022-12-18T12:45:53;102229.41;;;5.11;100.00
48846;BME280;34665;51.886;5.436;2022-12-18T12:48:43;102224.94;;;5.12;100.00
48846;BME280;34665;51.886;5.436;2022-12-18T12:51:17;102217.38;;;5.07;100.00
48846;BME280;34665;51.886;5.436;2022-12-18T12:53:43;102214.41;;;5.76;100.00
48846;BME280;34665;51.886;5.436;2022-12-18T12:56:11;102214.28;;;5.56;100.00
48846;BME280;34665;51.886;5.436;2022-12-18T12:59:03;102210.97;;;5.64;99.09
48846;BME280;34665;51.886;5.436;2022-12-18T13:01:41;102211.75;;;4.89;100.00
48846;BME280;34665;51.886;5.436;2022-12-18T13:07:09;102218.88;;;5.75;98.79
48846;BME280;34665;51.886;5.436;2022-12-18T13:13:12;102200.22;;;5.44;100.00
48846;BME280;34665;51.886;5.436;2022-12-18T13:15:43;102197.13;;;5.06;100.00
48846;BME280;34665;51.886;5.436;2022-12-18T13:20:37;102197.41;;;5.78;100.00
48846;BME280;34665;51.886;5.436;2022-12-18T13:36:37;102194.47;;;6.24;96.19
48846;BME280;34665;51.886;5.436;2022-12-18T13:41:48;102183.22;;;5.89;98.71
48846;BME280;34665;51.886;5.436;2022-12-18T13:46:54;102185.66;;;5.06;100.00
48846;BME280;34665;51.886;5.436;2022-12-18T13:49:23;102178.22;;;5.53;98.16
48846;BME280;34665;51.886;5.436;2022-12-18T13:51:52;102171.34;;;4.41;100.00
48846;BME280;34665;51.886;5.436;2022-12-18T13:56:48;102167.66;;;5.63;100.00
48846;BME280;34665;51.886;5.436;2022-12-18T13:59:15;102172.31;;;5.71;96.75
48846;BME280;34665;51.886;5.436;2022-12-18T14:06:49;102151.28;;;6.41;93.03
48846;BME280;34665;51.886;5.436;2022-12-18T14:09:20;102148.69;;;5.89;94.06
48846;BME280;34665;51.886;5.436;2022-12-18T14:11:49;102154.34;;;5.74;98.07
48846;BME280;34665;51.886;5.436;2022-12-18T14:14:19;102154.00;;;5.89;96.57
48846;BME280;34665;51.886;5.436;2022-12-18T14:16:46;102142.94;;;5.63;96.01
48846;BME280;34665;51.886;5.436;2022-12-18T14:19:14;102143.56;;;5.97;95.26
48846;BME280;34665;51.886;5.436;2022-12-18T14:21:48;102132.84;;;5.35;95.28
48846;BME280;34665;51.886;5.436;2022-12-18T14:24:20;102135.81;;;5.84;94.42
48846;BME280;34665;51.886;5.436;2022-12-18T14:26:47;102143.22;;;5.59;96.11
48846;BME280;34665;51.886;5.436;2022-12-18T14:29:34;102143.59;;;5.34;98.36
48846;BME280;34665;51.886;5.436;2022-12-18T14:32:19;102134.38;;;4.51;100.00